createdAt,value
2022-09-25T00:01:11.516Z,53.9
2022-09-25T00:06:34.446Z,53.8
2022-09-25T00:12:15.092Z,53.8
2022-09-25T00:17:52.411Z,53.8
2022-09-25T00:23:30.013Z,53.7
2022-09-25T00:29:07.926Z,53.7
2022-09-25T00:34:29.889Z,53.6
2022-09-25T00:40:07.424Z,53.6
2022-09-25T00:45:14.158Z,53.6
2022-09-25T00:50:51.083Z,53.5
2022-09-25T00:56:28.920Z,53.4
2022-09-25T01:01:51.570Z,53.4
2022-09-25T01:07:29.340Z,53.4
2022-09-25T01:13:06.723Z,53.3
2022-09-25T01:18:28.860Z,53.3
2022-09-25T01:24:07.018Z,53.3
2022-09-25T01:29:44.947Z,53.2
2022-09-25T01:35:22.765Z,53.2
2022-09-25T01:41:00.213Z,53.1
2022-09-25T01:46:37.876Z,53.1
2022-09-25T01:51:58.231Z,53.1
2022-09-25T01:57:19.473Z,53
2022-09-25T02:02:42.591Z,53
2022-09-25T02:08:03.921Z,52.9
2022-09-25T02:13:24.999Z,52.9
2022-09-25T02:18:31.911Z,52.8
2022-09-25T02:23:53.587Z,52.8
2022-09-25T02:29:15.388Z,52.8
2022-09-25T02:34:42.246Z,52.7
2022-09-25T02:40:04.200Z,52.7
2022-09-25T02:45:25.886Z,52.6
2022-09-25T02:50:48.323Z,52.6
2022-09-25T02:56:24.023Z,52.6
2022-09-25T03:02:07.621Z,52.5
2022-09-25T03:07:30.144Z,52.4
2022-09-25T03:12:52.187Z,52.4
2022-09-25T03:17:58.986Z,52.4
2022-09-25T03:28:43.023Z,52.3
2022-09-25T03:33:49.677Z,52.3
2022-09-25T03:39:11.397Z,52.3
2022-09-25T03:44:32.519Z,52.2
2022-09-25T03:49:53.257Z,52.2
2022-09-25T03:54:59.664Z,52.1
2022-09-25T04:00:06.550Z,52.1
2022-09-25T04:05:13.742Z,52.1
2022-09-25T04:10:51.152Z,52
2022-09-25T04:15:26.634Z,52
2022-09-25T04:31:01.672Z,51.9
2022-09-25T04:36:23.975Z,51.9
2022-09-25T04:42:01.923Z,51.8
2022-09-25T04:47:28.510Z,51.8
2022-09-25T04:52:50.760Z,51.7
2022-09-25T04:58:46.224Z,51.7
2022-09-25T05:04:10.556Z,51.6
2022-09-25T05:09:33.002Z,51.6
2022-09-25T05:14:55.673Z,51.6
2022-09-25T05:20:18.617Z,51.5
2022-09-25T05:25:46.103Z,51.5
2022-09-25T05:30:53.688Z,51.4
2022-09-25T05:36:15.588Z,51.4
2022-09-25T05:41:53.392Z,51.4
2022-09-25T05:47:31.402Z,51.3
2022-09-25T05:52:54.120Z,51.3
2022-09-25T05:58:16.808Z,51.3
2022-09-25T06:03:38.982Z,51.2
2022-09-25T06:14:34.741Z,51.1
2022-09-25T06:20:16.212Z,51.1
2022-09-25T06:25:53.504Z,50.9
2022-09-25T06:31:37.495Z,50.9
2022-09-25T06:37:17.026Z,50.8
2022-09-25T06:42:56.561Z,50.8
2022-09-25T06:48:40.241Z,50.7
2022-09-25T06:54:18.682Z,50.7
2022-09-25T06:59:55.682Z,50.6
2022-09-25T07:05:24.137Z,50.6
2022-09-25T07:11:02.867Z,50.6
2022-09-25T07:16:40.531Z,50.4
2022-09-25T07:22:18.310Z,50.4
2022-09-25T07:27:57.158Z,50.3
2022-09-25T07:33:35.102Z,50.3
2022-09-25T07:39:16.191Z,50.2
2022-09-25T07:45:21.784Z,50.2
2022-09-25T07:51:05.019Z,50.1
2022-09-25T07:56:27.425Z,50.1
2022-09-25T08:02:14.305Z,50.1
2022-09-25T08:07:54.613Z,50
2022-09-25T08:13:33.562Z,49.9
2022-09-25T08:19:02.086Z,49.9
2022-09-25T08:24:42.253Z,49.9
2022-09-25T08:30:22.390Z,49.8
2022-09-25T08:36:21.421Z,49.8
2022-09-25T08:42:03.898Z,49.6
2022-09-25T08:48:09.738Z,50.1
2022-09-25T08:53:34.423Z,50.5
2022-09-25T08:59:17.583Z,50.9
2022-09-25T09:04:57.941Z,51.4
2022-09-25T09:10:50.844Z,52
2022-09-25T09:21:12.563Z,52.9
2022-09-25T09:26:41.818Z,53.4
2022-09-25T09:31:50.410Z,53.8
2022-09-25T09:37:46.101Z,54.3
2022-09-25T09:43:11.331Z,54.6
2022-09-25T09:48:50.511Z,54.6
2022-09-25T09:54:34.228Z,54.9
2022-09-25T10:00:20.078Z,55.4
2022-09-25T10:06:28.151Z,55.9
2022-09-25T10:12:07.440Z,56.4
2022-09-25T10:17:48.111Z,56.9
2022-09-25T10:23:31.366Z,57.5
2022-09-25T20:06:32.017Z,60.3
2022-09-25T20:12:15.321Z,60.3
2022-09-25T20:17:59.622Z,60.3
2022-09-25T20:23:24.370Z,60.2
2022-09-25T20:29:05.028Z,60.1
2022-09-25T20:34:45.995Z,60.1
2022-09-25T20:40:11.695Z,60.1
2022-09-25T20:45:52.785Z,60
2022-09-25T20:51:16.940Z,59.9
2022-09-25T20:56:57.724Z,59.9
2022-09-25T21:02:39.466Z,59.8
2022-09-25T21:08:23.376Z,59.8
2022-09-25T21:13:47.871Z,59.8
2022-09-25T21:19:28.190Z,59.7
2022-09-25T21:25:08.010Z,59.6
2022-09-25T21:30:47.510Z,59.6
2022-09-25T21:36:14.448Z,59.6
2022-09-25T21:41:40.830Z,59.5
2022-09-25T21:47:20.719Z,59.4
2022-09-25T21:53:00.296Z,59.4
2022-09-25T21:58:38.366Z,59.4
2022-09-25T22:04:17.976Z,59.3
2022-09-25T22:09:57.203Z,59.3
2022-09-25T22:15:38.817Z,59.2
2022-09-25T22:21:01.829Z,59.2
2022-09-25T22:26:24.811Z,59.1
2022-09-25T22:32:03.172Z,59.1
2022-09-25T22:37:31.976Z,59
2022-09-25T22:42:54.812Z,58.9
2022-09-25T22:48:32.011Z,58.9
2022-09-25T22:54:09.027Z,58.9
2022-09-25T22:59:46.749Z,58.8
2022-09-25T23:05:24.819Z,58.8
2022-09-25T23:11:24.579Z,58.8
2022-09-25T23:17:03.136Z,58.7
2022-09-25T23:22:39.402Z,58.6
2022-09-25T23:33:24.524Z,58.5
2022-09-25T23:39:00.534Z,58.5
2022-09-25T23:44:27.920Z,58.4
2022-09-25T23:49:51.253Z,58.4
2022-09-25T23:55:28.579Z,58.4
